sensor_id;sensor_type;location;lat;lon;timestamp;temperature;humidity
3198;DHT22;1611;49.394;11.136;2023-06-10T00:01:52;15.40;61.00
3198;DHT22;1611;49.394;11.136;2023-06-10T00:04:22;15.40;60.90
3198;DHT22;1611;49.394;11.136;2023-06-10T00:06:48;15.40;60.60
3198;DHT22;1611;49.394;11.136;2023-06-10T00:09:16;15.40;60.90
3198;DHT22;1611;49.394;11.136;2023-06-10T00:11:44;15.40;61.00
3198;DHT22;1611;49.394;11.136;2023-06-10T00:14:11;15.30;61.70
3198;DHT22;1611;49.394;11.136;2023-06-10T00:16:37;15.30;61.50
3198;DHT22;1611;49.394;11.136;2023-06-10T00:19:05;15.30;61.00
3198;DHT22;1611;49.394;11.136;2023-06-10T00:21:34;15.30;61.00
3198;DHT22;1611;49.394;11.136;2023-06-10T00:24:03;15.30;61.00
3198;DHT22;1611;49.394;11.136;2023-06-10T00:26:30;15.20;61.20
3198;DHT22;1611;49.394;11.136;2023-06-10T00:28:57;15.10;62.40
3198;DHT22;1611;49.394;11.136;2023-06-10T00:31:24;15.10;62.60
3198;DHT22;1611;49.394;11.136;2023-06-10T00:33:51;15.00;63.20
3198;DHT22;1611;49.394;11.136;2023-06-10T00:36:18;14.90;64.20
3198;DHT22;1611;49.394;11.136;2023-06-10T00:38:47;14.90;64.20
3198;DHT22;1611;49.394;11.136;2023-06-10T00:41:13;14.80;64.00
3198;DHT22;1611;49.394;11.136;2023-06-10T00:43:40;14.80;64.20
3198;DHT22;1611;49.394;11.136;2023-06-10T00:46:07;14.90;64.20
3198;DHT22;1611;49.394;11.136;2023-06-10T00:48:34;14.90;65.10
3198;DHT22;1611;49.394;11.136;2023-06-10T00:51:01;14.90;65.10
3198;DHT22;1611;49.394;11.136;2023-06-10T00:53:28;15.00;64.50
3198;DHT22;1611;49.394;11.136;2023-06-10T00:55:57;15.00;64.20
3198;DHT22;1611;49.394;11.136;2023-06-10T00:58:24;15.00;64.00
3198;DHT22;1611;49.394;11.136;2023-06-10T01:00:51;14.90;63.60
3198;DHT22;1611;49.394;11.136;2023-06-10T01:03:19;14.90;64.30
3198;DHT22;1611;49.394;11.136;2023-06-10T01:05:50;14.80;64.80
3198;DHT22;1611;49.394;11.136;2023-06-10T01:08:28;14.70;65.10
3198;DHT22;1611;49.394;11.136;2023-06-10T01:11:01;14.80;64.80
3198;DHT22;1611;49.394;11.136;2023-06-10T01:13:30;14.80;64.70
3198;DHT22;1611;49.394;11.136;2023-06-10T01:15:58;14.70;64.70
3198;DHT22;1611;49.394;11.136;2023-06-10T01:18:30;14.70;64.90
3198;DHT22;1611;49.394;11.136;2023-06-10T01:20:57;14.60;65.60
3198;DHT22;1611;49.394;11.136;2023-06-10T01:23:25;14.60;65.30
3198;DHT22;1611;49.394;11.136;2023-06-10T01:25:55;14.60;64.50
3198;DHT22;1611;49.394;11.136;2023-06-10T01:28:29;14.60;65.00
3198;DHT22;1611;49.394;11.136;2023-06-10T01:31:08;14.60;64.30
3198;DHT22;1611;49.394;11.136;2023-06-10T01:33:41;14.50;65.30
3198;DHT22;1611;49.394;11.136;2023-06-10T01:36:09;14.50;65.80
3198;DHT22;1611;49.394;11.136;2023-06-10T01:38:42;14.60;64.80
3198;DHT22;1611;49.394;11.136;2023-06-10T01:41:10;14.60;64.60
3198;DHT22;1611;49.394;11.136;2023-06-10T01:43:39;14.60;64.30
3198;DHT22;1611;49.394;11.136;2023-06-10T01:46:05;14.70;64.60
3198;DHT22;1611;49.394;11.136;2023-06-10T01:48:32;14.70;64.40
3198;DHT22;1611;49.394;11.136;2023-06-10T01:50:59;14.70;64.40
3198;DHT22;1611;49.394;11.136;2023-06-10T01:53:26;14.70;64.30
3198;DHT22;1611;49.394;11.136;2023-06-10T01:55:54;14.80;64.50
3198;DHT22;1611;49.394;11.136;2023-06-10T01:58:21;14.80;64.40
3198;DHT22;1611;49.394;11.136;2023-06-10T02:00:48;14.80;64.00
3198;DHT22;1611;49.394;11.136;2023-06-10T02:03:15;14.80;63.50
3198;DHT22;1611;49.394;11.136;2023-06-10T02:05:41;14.70;63.90
3198;DHT22;1611;49.394;11.136;2023-06-10T02:08:08;14.70;64.40
3198;DHT22;1611;49.394;11.136;2023-06-10T02:10:35;14.60;64.60
3198;DHT22;1611;49.394;11.136;2023-06-10T02:13:03;14.70;64.20
3198;DHT22;1611;49.394;11.136;2023-06-10T02:15:30;14.70;63.90
3198;DHT22;1611;49.394;11.136;2023-06-10T02:17:57;14.70;64.10
3198;DHT22;1611;49.394;11.136;2023-06-10T02:20:23;14.70;64.30
3198;DHT22;1611;49.394;11.136;2023-06-10T02:22:50;14.70;64.30
3198;DHT22;1611;49.394;11.136;2023-06-10T02:25:17;14.70;64.00
3198;DHT22;1611;49.394;11.136;2023-06-10T02:27:44;14.70;64.70
3198;DHT22;1611;49.394;11.136;2023-06-10T02:30:13;14.60;64.40
3198;DHT22;1611;49.394;11.136;2023-06-10T02:32:41;14.60;65.30
3198;DHT22;1611;49.394;11.136;2023-06-10T02:35:08;14.50;65.20
3198;DHT22;1611;49.394;11.136;2023-06-10T02:37:38;14.40;66.00
3198;DHT22;1611;49.394;11.136;2023-06-10T02:40:06;14.30;66.60
3198;DHT22;1611;49.394;11.136;2023-06-10T02:42:33;14.30;67.20
3198;DHT22;1611;49.394;11.136;2023-06-10T02:44:59;14.20;67.10
3198;DHT22;1611;49.394;11.136;2023-06-10T02:47:28;14.10;67.50
3198;DHT22;1611;49.394;11.136;2023-06-10T02:49:55;14.00;68.00
3198;DHT22;1611;49.394;11.136;2023-06-10T02:52:22;14.00;68.60
3198;DHT22;1611;49.394;11.136;2023-06-10T02:54:48;14.00;68.90
3198;DHT22;1611;49.394;11.136;2023-06-10T02:57:15;14.10;68.40
3198;DHT22;1611;49.394;11.136;2023-06-10T02:59:42;14.20;67.90
3198;DHT22;1611;49.394;11.136;2023-06-10T03:02:09;14.20;67.70
3198;DHT22;1611;49.394;11.136;2023-06-10T03:04:38;14.20;68.00
3198;DHT22;1611;49.394;11.136;2023-06-10T03:07:04;14.20;67.80
3198;DHT22;1611;49.394;11.136;2023-06-10T03:09:32;14.30;67.60
3198;DHT22;1611;49.394;11.136;2023-06-10T03:11:59;14.20;67.40
3198;DHT22;1611;49.394;11.136;2023-06-10T03:14:27;14.10;68.00
3198;DHT22;1611;49.394;11.136;2023-06-10T03:16:53;14.10;68.20
3198;DHT22;1611;49.394;11.136;2023-06-10T03:19:21;14.00;68.50
3198;DHT22;1611;49.394;11.136;2023-06-10T03:22:08;14.00;68.70
3198;DHT22;1611;49.394;11.136;2023-06-10T03:24:35;14.00;68.30
3198;DHT22;1611;49.394;11.136;2023-06-10T03:27:06;14.00;68.80
3198;DHT22;1611;49.394;11.136;2023-06-10T03:29:33;14.20;68.60
3198;DHT22;1611;49.394;11.136;2023-06-10T03:32:00;14.30;68.10
3198;DHT22;1611;49.394;11.136;2023-06-10T03:34:27;14.30;67.20
3198;DHT22;1611;49.394;11.136;2023-06-10T03:36:56;14.20;67.20
3198;DHT22;1611;49.394;11.136;2023-06-10T03:39:23;14.30;67.20
3198;DHT22;1611;49.394;11.136;2023-06-10T03:41:50;14.30;66.80
3198;DHT22;1611;49.394;11.136;2023-06-10T03:44:16;14.30;66.60
3198;DHT22;1611;49.394;11.136;2023-06-10T03:46:43;14.30;66.60
3198;DHT22;1611;49.394;11.136;2023-06-10T03:49:11;14.30;66.50
3198;DHT22;1611;49.394;11.136;2023-06-10T03:51:37;14.30;66.70
3198;DHT22;1611;49.394;11.136;2023-06-10T03:54:06;14.50;67.20
3198;DHT22;1611;49.394;11.136;2023-06-10T03:56:32;14.60;65.40
3198;DHT22;1611;49.394;11.136;2023-06-10T03:58:59;14.60;65.40
3198;DHT22;1611;49.394;11.136;2023-06-10T04:01:26;14.60;65.30
3198;DHT22;1611;49.394;11.136;2023-06-10T04:03:53;14.70;65.30
3198;DHT22;1611;49.394;11.136;2023-06-10T04:06:20;14.60;65.10
3198;DHT22;1611;49.394;11.136;2023-06-10T04:08:50;14.70;65.10
3198;DHT22;1611;49.394;11.136;2023-06-10T04:11:18;14.70;64.40
3198;DHT22;1611;49.394;11.136;2023-06-10T04:13:45;14.60;64.50
3198;DHT22;1611;49.394;11.136;2023-06-10T04:16:12;14.60;65.50
3198;DHT22;1611;49.394;11.136;2023-06-10T04:18:38;14.60;65.50
3198;DHT22;1611;49.394;11.136;2023-06-10T04:21:07;14.80;65.50
3198;DHT22;1611;49.394;11.136;2023-06-10T04:23:35;14.80;65.40
3198;DHT22;1611;49.394;11.136;2023-06-10T04:26:02;15.00;64.70
3198;DHT22;1611;49.394;11.136;2023-06-10T04:28:30;15.10;64.30
3198;DHT22;1611;49.394;11.136;2023-06-10T04:30:57;15.20;63.90
3198;DHT22;1611;49.394;11.136;2023-06-10T04:33:24;15.20;63.20
3198;DHT22;1611;49.394;11.136;2023-06-10T04:35:50;15.30;63.30
3198;DHT22;1611;49.394;11.136;2023-06-10T04:38:17;15.30;63.10
3198;DHT22;1611;49.394;11.136;2023-06-10T04:40:44;15.40;63.10
3198;DHT22;1611;49.394;11.136;2023-06-10T04:43:11;15.50;62.90
3198;DHT22;1611;49.394;11.136;2023-06-10T04:45:39;15.50;63.10
3198;DHT22;1611;49.394;11.136;2023-06-10T04:48:10;15.60;62.60
3198;DHT22;1611;49.394;11.136;2023-06-10T04:50:37;15.50;63.20
3198;DHT22;1611;49.394;11.136;2023-06-10T04:53:04;15.60;63.50
3198;DHT22;1611;49.394;11.136;2023-06-10T04:55:31;15.60;63.90
3198;DHT22;1611;49.394;11.136;2023-06-10T04:57:58;15.70;63.70
3198;DHT22;1611;49.394;11.136;2023-06-10T05:00:25;15.80;63.70
3198;DHT22;1611;49.394;11.136;2023-06-10T05:02:53;15.80;63.70
3198;DHT22;1611;49.394;11.136;2023-06-10T05:05:21;16.00;63.60
3198;DHT22;1611;49.394;11.136;2023-06-10T05:07:48;16.00;63.50
3198;DHT22;1611;49.394;11.136;2023-06-10T05:10:15;16.00;63.70
3198;DHT22;1611;49.394;11.136;2023-06-10T05:12:42;16.10;63.60
3198;DHT22;1611;49.394;11.136;2023-06-10T05:15:09;16.20;63.20
3198;DHT22;1611;49.394;11.136;2023-06-10T05:17:36;16.20;63.00
3198;DHT22;1611;49.394;11.136;2023-06-10T05:20:05;16.30;63.40
3198;DHT22;1611;49.394;11.136;2023-06-10T05:22:33;16.30;63.20
3198;DHT22;1611;49.394;11.136;2023-06-10T05:25:01;16.30;63.50
3198;DHT22;1611;49.394;11.136;2023-06-10T05:27:28;16.50;63.40
3198;DHT22;1611;49.394;11.136;2023-06-10T05:29:55;16.60;62.50
3198;DHT22;1611;49.394;11.136;2023-06-10T05:32:22;16.80;61.70
3198;DHT22;1611;49.394;11.136;2023-06-10T05:34:48;17.00;60.90
3198;DHT22;1611;49.394;11.136;2023-06-10T05:37:16;17.10;59.50
3198;DHT22;1611;49.394;11.136;2023-06-10T05:39:43;17.20;58.30
3198;DHT22;1611;49.394;11.136;2023-06-10T05:42:10;17.40;58.50
3198;DHT22;1611;49.394;11.136;2023-06-10T05:44:37;17.50;57.30
3198;DHT22;1611;49.394;11.136;2023-06-10T05:47:04;17.60;56.40
3198;DHT22;1611;49.394;11.136;2023-06-10T05:49:31;17.70;55.30
3198;DHT22;1611;49.394;11.136;2023-06-10T05:51:58;17.90;56.00
3198;DHT22;1611;49.394;11.136;2023-06-10T05:54:26;18.00;56.60
3198;DHT22;1611;49.394;11.136;2023-06-10T05:56:53;18.10;54.40
3198;DHT22;1611;49.394;11.136;2023-06-10T05:59:20;18.30;53.40
3198;DHT22;1611;49.394;11.136;2023-06-10T06:01:48;18.40;52.30
3198;DHT22;1611;49.394;11.136;2023-06-10T06:04:15;18.50;51.50
3198;DHT22;1611;49.394;11.136;2023-06-10T06:06:42;18.70;50.80
3198;DHT22;1611;49.394;11.136;2023-06-10T06:09:09;18.90;49.70
3198;DHT22;1611;49.394;11.136;2023-06-10T06:11:37;18.90;48.80
3198;DHT22;1611;49.394;11.136;2023-06-10T06:14:04;19.10;48.80
3198;DHT22;1611;49.394;11.136;2023-06-10T06:16:30;19.20;48.30
3198;DHT22;1611;49.394;11.136;2023-06-10T06:18:57;19.30;47.70
3198;DHT22;1611;49.394;11.136;2023-06-10T06:21:24;19.40;47.80
3198;DHT22;1611;49.394;11.136;2023-06-10T06:23:51;19.50;47.00
3198;DHT22;1611;49.394;11.136;2023-06-10T06:26:18;19.60;46.60
3198;DHT22;1611;49.394;11.136;2023-06-10T06:28:46;19.70;46.00
3198;DHT22;1611;49.394;11.136;2023-06-10T06:31:12;19.80;45.40
3198;DHT22;1611;49.394;11.136;2023-06-10T06:33:39;19.90;46.00
3198;DHT22;1611;49.394;11.136;2023-06-10T06:36:06;19.90;44.90
3198;DHT22;1611;49.394;11.136;2023-06-10T06:38:33;20.10;45.70
3198;DHT22;1611;49.394;11.136;2023-06-10T06:40:59;20.30;44.60
3198;DHT22;1611;49.394;11.136;2023-06-10T06:43:28;20.30;42.80
3198;DHT22;1611;49.394;11.136;2023-06-10T06:45:57;20.30;42.50
3198;DHT22;1611;49.394;11.136;2023-06-10T06:48:24;20.50;42.60
3198;DHT22;1611;49.394;11.136;2023-06-10T06:50:51;20.60;41.50
3198;DHT22;1611;49.394;11.136;2023-06-10T06:53:18;20.60;41.60
3198;DHT22;1611;49.394;11.136;2023-06-10T06:55:44;20.70;41.20
3198;DHT22;1611;49.394;11.136;2023-06-10T06:58:11;20.80;39.70
3198;DHT22;1611;49.394;11.136;2023-06-10T07:00:38;20.90;39.40
3198;DHT22;1611;49.394;11.136;2023-06-10T07:03:06;21.00;39.80
3198;DHT22;1611;49.394;11.136;2023-06-10T07:05:33;21.10;40.80
3198;DHT22;1611;49.394;11.136;2023-06-10T07:07:59;21.20;40.50
3198;DHT22;1611;49.394;11.136;2023-06-10T07:10:27;21.20;40.80
3198;DHT22;1611;49.394;11.136;2023-06-10T07:12:54;21.40;39.30
3198;DHT22;1611;49.394;11.136;2023-06-10T07:15:21;21.60;38.70
3198;DHT22;1611;49.394;11.136;2023-06-10T07:17:47;21.70;38.60
3198;DHT22;1611;49.394;11.136;2023-06-10T07:20:16;21.70;38.00
3198;DHT22;1611;49.394;11.136;2023-06-10T07:22:43;21.70;39.00
3198;DHT22;1611;49.394;11.136;2023-06-10T07:25:10;21.70;38.50
3198;DHT22;1611;49.394;11.136;2023-06-10T07:27:37;21.80;38.70
3198;DHT22;1611;49.394;11.136;2023-06-10T07:30:06;21.80;37.20
3198;DHT22;1611;49.394;11.136;2023-06-10T07:32:33;22.00;38.10
3198;DHT22;1611;49.394;11.136;2023-06-10T07:35:00;22.10;38.50
3198;DHT22;1611;49.394;11.136;2023-06-10T07:37:28;22.30;37.50
3198;DHT22;1611;49.394;11.136;2023-06-10T07:39:56;22.30;37.10
3198;DHT22;1611;49.394;11.136;2023-06-10T07:42:23;22.40;36.90
3198;DHT22;1611;49.394;11.136;2023-06-10T07:44:50;22.40;36.60
3198;DHT22;1611;49.394;11.136;2023-06-10T07:47:17;22.50;36.40
3198;DHT22;1611;49.394;11.136;2023-06-10T07:49:44;22.60;35.30
3198;DHT22;1611;49.394;11.136;2023-06-10T07:52:11;22.70;35.70
3198;DHT22;1611;49.394;11.136;2023-06-10T07:54:39;22.70;35.80
3198;DHT22;1611;49.394;11.136;2023-06-10T07:57:06;22.90;35.80
3198;DHT22;1611;49.394;11.136;2023-06-10T07:59:33;22.90;34.40
3198;DHT22;1611;49.394;11.136;2023-06-10T08:02:00;23.10;34.20
3198;DHT22;1611;49.394;11.136;2023-06-10T08:04:27;23.20;33.80
3198;DHT22;1611;49.394;11.136;2023-06-10T08:06:53;23.20;33.70
3198;DHT22;1611;49.394;11.136;2023-06-10T08:09:20;23.30;33.60
3198;DHT22;1611;49.394;11.136;2023-06-10T08:11:50;23.30;32.80
3198;DHT22;1611;49.394;11.136;2023-06-10T08:14:17;23.40;32.60
3198;DHT22;1611;49.394;11.136;2023-06-10T08:16:44;23.50;32.60
3198;DHT22;1611;49.394;11.136;2023-06-10T08:19:11;23.50;33.20
3198;DHT22;1611;49.394;11.136;2023-06-10T08:21:38;23.70;32.80
3198;DHT22;1611;49.394;11.136;2023-06-10T08:24:05;23.80;31.80
3198;DHT22;1611;49.394;11.136;2023-06-10T08:26:32;23.80;31.70
3198;DHT22;1611;49.394;11.136;2023-06-10T08:29:00;23.90;32.00
3198;DHT22;1611;49.394;11.136;2023-06-10T08:31:27;24.20;32.30
3198;DHT22;1611;49.394;11.136;2023-06-10T08:33:54;24.40;30.50
3198;DHT22;1611;49.394;11.136;2023-06-10T08:36:21;24.60;31.30
3198;DHT22;1611;49.394;11.136;2023-06-10T08:38:47;24.70;31.10
3198;DHT22;1611;49.394;11.136;2023-06-10T08:41:17;24.90;30.00
3198;DHT22;1611;49.394;11.136;2023-06-10T08:43:46;25.00;28.80
3198;DHT22;1611;49.394;11.136;2023-06-10T08:46:16;25.10;27.70
3198;DHT22;1611;49.394;11.136;2023-06-10T08:48:43;25.10;27.20
3198;DHT22;1611;49.394;11.136;2023-06-10T08:51:11;25.30;26.90
3198;DHT22;1611;49.394;11.136;2023-06-10T08:53:41;25.30;25.80
3198;DHT22;1611;49.394;11.136;2023-06-10T08:56:12;25.30;26.40
3198;DHT22;1611;49.394;11.136;2023-06-10T08:58:39;25.40;27.80
3198;DHT22;1611;49.394;11.136;2023-06-10T09:01:07;25.40;25.70
3198;DHT22;1611;49.394;11.136;2023-06-10T09:03:37;25.40;26.60
3198;DHT22;1611;49.394;11.136;2023-06-10T09:06:05;25.50;25.30
3198;DHT22;1611;49.394;11.136;2023-06-10T09:08:33;25.60;25.90
3198;DHT22;1611;49.394;11.136;2023-06-10T09:11:00;25.70;24.90
3198;DHT22;1611;49.394;11.136;2023-06-10T09:13:27;25.80;26.40
3198;DHT22;1611;49.394;11.136;2023-06-10T09:15:54;25.80;25.00
3198;DHT22;1611;49.394;11.136;2023-06-10T09:18:22;25.90;26.00
3198;DHT22;1611;49.394;11.136;2023-06-10T09:20:50;25.80;25.50
3198;DHT22;1611;49.394;11.136;2023-06-10T09:23:17;25.90;25.10
3198;DHT22;1611;49.394;11.136;2023-06-10T09:25:44;26.00;25.60
3198;DHT22;1611;49.394;11.136;2023-06-10T09:28:13;26.20;26.40
3198;DHT22;1611;49.394;11.136;2023-06-10T09:30:40;26.10;25.70
3198;DHT22;1611;49.394;11.136;2023-06-10T09:33:10;26.30;25.70
3198;DHT22;1611;49.394;11.136;2023-06-10T09:35:45;26.50;25.90
3198;DHT22;1611;49.394;11.136;2023-06-10T09:38:14;26.70;23.80
3198;DHT22;1611;49.394;11.136;2023-06-10T09:40:49;26.60;23.90
3198;DHT22;1611;49.394;11.136;2023-06-10T09:43:16;26.50;23.20
3198;DHT22;1611;49.394;11.136;2023-06-10T09:45:43;26.40;26.20
3198;DHT22;1611;49.394;11.136;2023-06-10T09:48:10;26.60;24.80
3198;DHT22;1611;49.394;11.136;2023-06-10T09:50:42;26.60;24.20
3198;DHT22;1611;49.394;11.136;2023-06-10T09:53:09;26.60;22.90
3198;DHT22;1611;49.394;11.136;2023-06-10T09:55:40;26.50;23.70
3198;DHT22;1611;49.394;11.136;2023-06-10T09:58:07;26.10;24.70
3198;DHT22;1611;49.394;11.136;2023-06-10T10:00:34;25.80;24.50
3198;DHT22;1611;49.394;11.136;2023-06-10T10:03:01;25.80;25.30
3198;DHT22;1611;49.394;11.136;2023-06-10T10:05:28;25.90;24.40
3198;DHT22;1611;49.394;11.136;2023-06-10T10:07:56;25.70;24.80
3198;DHT22;1611;49.394;11.136;2023-06-10T10:10:22;25.60;25.30
3198;DHT22;1611;49.394;11.136;2023-06-10T10:12:54;25.50;26.00
3198;DHT22;1611;49.394;11.136;2023-06-10T10:15:24;25.50;26.20
3198;DHT22;1611;49.394;11.136;2023-06-10T10:17:53;25.50;26.00
3198;DHT22;1611;49.394;11.136;2023-06-10T10:20:26;25.40;26.40
3198;DHT22;1611;49.394;11.136;2023-06-10T10:22:56;25.30;25.80
3198;DHT22;1611;49.394;11.136;2023-06-10T10:25:27;25.10;25.10
3198;DHT22;1611;49.394;11.136;2023-06-10T10:27:58;25.10;27.00
3198;DHT22;1611;49.394;11.136;2023-06-10T10:30:25;25.20;27.00
3198;DHT22;1611;49.394;11.136;2023-06-10T10:32:57;25.40;27.00
3198;DHT22;1611;49.394;11.136;2023-06-10T10:35:25;25.30;26.80
3198;DHT22;1611;49.394;11.136;2023-06-10T10:37:53;25.10;27.10
3198;DHT22;1611;49.394;11.136;2023-06-10T10:40:20;25.00;27.40
3198;DHT22;1611;49.394;11.136;2023-06-10T10:42:48;25.20;27.30
3198;DHT22;1611;49.394;11.136;2023-06-10T10:45:17;25.30;26.40
3198;DHT22;1611;49.394;11.136;2023-06-10T10:47:45;25.30;25.90
3198;DHT22;1611;49.394;11.136;2023-06-10T10:50:16;25.30;26.60
3198;DHT22;1611;49.394;11.136;2023-06-10T10:52:54;25.80;27.20
3198;DHT22;1611;49.394;11.136;2023-06-10T10:55:21;26.30;26.60
3198;DHT22;1611;49.394;11.136;2023-06-10T10:57:54;26.60;26.80
3198;DHT22;1611;49.394;11.136;2023-06-10T11:00:27;27.20;24.20
3198;DHT22;1611;49.394;11.136;2023-06-10T11:02:58;27.50;23.30
3198;DHT22;1611;49.394;11.136;2023-06-10T11:05:32;27.70;22.80
3198;DHT22;1611;49.394;11.136;2023-06-10T11:08:01;27.70;22.30
3198;DHT22;1611;49.394;11.136;2023-06-10T11:10:30;27.90;22.20
3198;DHT22;1611;49.394;11.136;2023-06-10T11:12:57;28.20;22.10
3198;DHT22;1611;49.394;11.136;2023-06-10T11:15:26;28.40;21.60
3198;DHT22;1611;49.394;11.136;2023-06-10T11:18:09;28.30;20.00
3198;DHT22;1611;49.394;11.136;2023-06-10T11:20:45;28.50;20.00
3198;DHT22;1611;49.394;11.136;2023-06-10T11:23:25;28.70;21.20
3198;DHT22;1611;49.394;11.136;2023-06-10T11:26:29;28.60;19.50
3198;DHT22;1611;49.394;11.136;2023-06-10T11:29:07;28.40;21.40
3198;DHT22;1611;49.394;11.136;2023-06-10T11:31:41;28.40;20.30
3198;DHT22;1611;49.394;11.136;2023-06-10T11:34:08;28.40;19.40
3198;DHT22;1611;49.394;11.136;2023-06-10T11:36:37;28.20;20.00
3198;DHT22;1611;49.394;11.136;2023-06-10T11:39:06;28.10;22.60
3198;DHT22;1611;49.394;11.136;2023-06-10T11:41:33;28.10;21.80
3198;DHT22;1611;49.394;11.136;2023-06-10T11:44:02;27.90;21.60
3198;DHT22;1611;49.394;11.136;2023-06-10T11:46:30;27.70;22.10
3198;DHT22;1611;49.394;11.136;2023-06-10T11:48:59;27.40;21.40
3198;DHT22;1611;49.394;11.136;2023-06-10T11:51:29;28.90;18.30
3198;DHT22;1611;49.394;11.136;2023-06-10T11:53:56;31.20;17.40
3198;DHT22;1611;49.394;11.136;2023-06-10T11:56:23;32.80;15.70
3198;DHT22;1611;49.394;11.136;2023-06-10T11:58:53;33.60;12.40
3198;DHT22;1611;49.394;11.136;2023-06-10T12:01:21;34.90;12.50
3198;DHT22;1611;49.394;11.136;2023-06-10T12:03:58;36.10;11.10
3198;DHT22;1611;49.394;11.136;2023-06-10T12:06:25;34.90;10.20
3198;DHT22;1611;49.394;11.136;2023-06-10T12:08:53;33.70;12.10
3198;DHT22;1611;49.394;11.136;2023-06-10T12:11:20;35.10;12.50
3198;DHT22;1611;49.394;11.136;2023-06-10T12:13:48;37.30;10.00
3198;DHT22;1611;49.394;11.136;2023-06-10T12:16:15;38.30;7.40
3198;DHT22;1611;49.394;11.136;2023-06-10T12:18:44;37.10;8.00
3198;DHT22;1611;49.394;11.136;2023-06-10T12:21:20;35.60;9.30
3198;DHT22;1611;49.394;11.136;2023-06-10T12:24:09;36.20;9.40
3198;DHT22;1611;49.394;11.136;2023-06-10T12:26:37;38.30;7.70
3198;DHT22;1611;49.394;11.136;2023-06-10T12:29:22;37.90;6.50
3198;DHT22;1611;49.394;11.136;2023-06-10T12:32:00;37.10;8.60
3198;DHT22;1611;49.394;11.136;2023-06-10T12:34:32;35.50;10.20
3198;DHT22;1611;49.394;11.136;2023-06-10T12:37:01;34.00;11.70
3198;DHT22;1611;49.394;11.136;2023-06-10T12:39:30;32.30;14.00
3198;DHT22;1611;49.394;11.136;2023-06-10T12:41:57;31.30;16.80
3198;DHT22;1611;49.394;11.136;2023-06-10T12:44:31;31.10;16.40
3198;DHT22;1611;49.394;11.136;2023-06-10T12:46:58;31.80;15.00
3198;DHT22;1611;49.394;11.136;2023-06-10T12:49:25;32.20;14.10
3198;DHT22;1611;49.394;11.136;2023-06-10T12:51:53;33.30;13.40
3198;DHT22;1611;49.394;11.136;2023-06-10T12:54:21;35.60;11.60
3198;DHT22;1611;49.394;11.136;2023-06-10T12:56:48;38.10;8.00
3198;DHT22;1611;49.394;11.136;2023-06-10T12:59:15;40.10;4.90
3198;DHT22;1611;49.394;11.136;2023-06-10T13:01:42;40.50;4.50
3198;DHT22;1611;49.394;11.136;2023-06-10T13:04:08;39.30;5.70
3198;DHT22;1611;49.394;11.136;2023-06-10T13:06:35;37.80;7.00
3198;DHT22;1611;49.394;11.136;2023-06-10T13:09:05;36.30;9.00
3198;DHT22;1611;49.394;11.136;2023-06-10T13:11:34;35.90;9.20
3198;DHT22;1611;49.394;11.136;2023-06-10T13:14:02;36.40;8.70
3198;DHT22;1611;49.394;11.136;2023-06-10T13:16:30;38.30;6.80
3198;DHT22;1611;49.394;11.136;2023-06-10T13:18:57;40.90;5.10
3198;DHT22;1611;49.394;11.136;2023-06-10T13:21:24;42.90;3.30
3198;DHT22;1611;49.394;11.136;2023-06-10T13:23:51;44.50;2.70
3198;DHT22;1611;49.394;11.136;2023-06-10T13:26:18;45.80;1.00
3198;DHT22;1611;49.394;11.136;2023-06-10T13:28:46;47.20;1.00
3198;DHT22;1611;49.394;11.136;2023-06-10T13:31:13;47.10;1.00
3198;DHT22;1611;49.394;11.136;2023-06-10T13:33:39;47.30;1.00
3198;DHT22;1611;49.394;11.136;2023-06-10T13:36:09;46.00;1.00
3198;DHT22;1611;49.394;11.136;2023-06-10T13:38:35;43.80;1.50
3198;DHT22;1611;49.394;11.136;2023-06-10T13:41:02;40.90;2.90
3198;DHT22;1611;49.394;11.136;2023-06-10T13:43:29;38.80;5.70
3198;DHT22;1611;49.394;11.136;2023-06-10T13:45:57;36.90;7.00
3198;DHT22;1611;49.394;11.136;2023-06-10T13:48:24;35.50;9.40
3198;DHT22;1611;49.394;11.136;2023-06-10T13:50:50;34.20;10.50
3198;DHT22;1611;49.394;11.136;2023-06-10T13:53:17;33.10;12.00
3198;DHT22;1611;49.394;11.136;2023-06-10T13:55:44;32.20;13.80
3198;DHT22;1611;49.394;11.136;2023-06-10T13:58:11;31.70;14.70
3198;DHT22;1611;49.394;11.136;2023-06-10T14:00:37;31.40;14.40
3198;DHT22;1611;49.394;11.136;2023-06-10T14:03:05;31.20;16.10
3198;DHT22;1611;49.394;11.136;2023-06-10T14:05:32;31.50;15.80
3198;DHT22;1611;49.394;11.136;2023-06-10T14:08:00;33.60;15.40
3198;DHT22;1611;49.394;11.136;2023-06-10T14:10:26;35.80;12.50
3198;DHT22;1611;49.394;11.136;2023-06-10T14:12:53;35.60;9.70
3198;DHT22;1611;49.394;11.136;2023-06-10T14:15:20;34.30;11.10
3198;DHT22;1611;49.394;11.136;2023-06-10T14:17:47;33.20;12.70
3198;DHT22;1611;49.394;11.136;2023-06-10T14:20:15;32.00;15.50
3198;DHT22;1611;49.394;11.136;2023-06-10T14:22:42;31.10;18.00
3198;DHT22;1611;49.394;11.136;2023-06-10T14:25:09;30.40;16.10
3198;DHT22;1611;49.394;11.136;2023-06-10T14:27:36;29.50;16.30
3198;DHT22;1611;49.394;11.136;2023-06-10T14:30:04;29.10;17.70
3198;DHT22;1611;49.394;11.136;2023-06-10T14:32:31;28.80;18.30
3198;DHT22;1611;49.394;11.136;2023-06-10T14:34:57;28.40;19.70
3198;DHT22;1611;49.394;11.136;2023-06-10T14:37:26;28.40;21.50
3198;DHT22;1611;49.394;11.136;2023-06-10T14:39:52;28.60;20.50
3198;DHT22;1611;49.394;11.136;2023-06-10T14:42:19;29.40;21.00
3198;DHT22;1611;49.394;11.136;2023-06-10T14:44:46;30.10;20.60
3198;DHT22;1611;49.394;11.136;2023-06-10T14:47:13;30.70;19.50
3198;DHT22;1611;49.394;11.136;2023-06-10T14:49:39;30.60;16.40
3198;DHT22;1611;49.394;11.136;2023-06-10T14:52:07;30.60;16.30
3198;DHT22;1611;49.394;11.136;2023-06-10T14:54:36;30.90;16.50
3198;DHT22;1611;49.394;11.136;2023-06-10T14:57:03;31.40;16.40
3198;DHT22;1611;49.394;11.136;2023-06-10T14:59:31;31.30;15.30
3198;DHT22;1611;49.394;11.136;2023-06-10T15:01:58;30.70;15.60
3198;DHT22;1611;49.394;11.136;2023-06-10T15:04:26;30.00;16.50
3198;DHT22;1611;49.394;11.136;2023-06-10T15:06:52;29.80;19.30
3198;DHT22;1611;49.394;11.136;2023-06-10T15:09:19;31.30;15.60
3198;DHT22;1611;49.394;11.136;2023-06-10T15:11:47;32.50;16.10
3198;DHT22;1611;49.394;11.136;2023-06-10T15:14:14;32.60;12.80
3198;DHT22;1611;49.394;11.136;2023-06-10T15:16:41;32.20;14.10
3198;DHT22;1611;49.394;11.136;2023-06-10T15:19:08;31.70;14.50
3198;DHT22;1611;49.394;11.136;2023-06-10T15:21:35;31.30;15.40
3198;DHT22;1611;49.394;11.136;2023-06-10T15:24:03;30.60;15.90
3198;DHT22;1611;49.394;11.136;2023-06-10T15:26:30;30.30;17.40
3198;DHT22;1611;49.394;11.136;2023-06-10T15:28:58;29.90;16.50
3198;DHT22;1611;49.394;11.136;2023-06-10T15:31:29;29.80;17.70
3198;DHT22;1611;49.394;11.136;2023-06-10T15:33:56;30.00;18.80
3198;DHT22;1611;49.394;11.136;2023-06-10T15:36:23;30.10;16.60
3198;DHT22;1611;49.394;11.136;2023-06-10T15:38:49;30.00;16.90
3198;DHT22;1611;49.394;11.136;2023-06-10T15:41:16;29.30;17.90
3198;DHT22;1611;49.394;11.136;2023-06-10T15:43:43;28.90;19.90
3198;DHT22;1611;49.394;11.136;2023-06-10T15:46:12;28.10;25.70
3198;DHT22;1611;49.394;11.136;2023-06-10T15:48:38;27.50;31.80
3198;DHT22;1611;49.394;11.136;2023-06-10T15:51:05;26.70;36.00
3198;DHT22;1611;49.394;11.136;2023-06-10T15:53:33;26.10;39.60